createdAt,value
2024-02-19T00:01:42.119Z,15.30
2024-02-19T00:04:08.887Z,15.20
2024-02-19T00:06:36.027Z,15.29
2024-02-19T00:09:02.770Z,15.15
2024-02-19T00:11:30.959Z,15.26
2024-02-19T00:13:59.183Z,15.24
2024-02-19T00:16:25.809Z,15.17
2024-02-19T00:18:52.585Z,15.34
2024-02-19T00:21:19.360Z,15.52
2024-02-19T00:23:45.947Z,15.50
2024-02-19T00:26:14.210Z,15.58
2024-02-19T00:28:41.031Z,15.49
2024-02-19T00:31:11.671Z,15.55
2024-02-19T00:33:39.500Z,15.66
2024-02-19T00:36:06.538Z,15.62
2024-02-19T00:38:33.187Z,15.76
2024-02-19T00:40:59.781Z,15.62
2024-02-19T00:43:26.881Z,15.59
2024-02-19T00:45:53.493Z,15.46
2024-02-19T00:48:20.047Z,14.96
2024-02-19T00:50:46.585Z,15.25
2024-02-19T00:53:13.156Z,15.10
2024-02-19T00:55:39.822Z,15.04
2024-02-19T00:58:06.421Z,14.92
2024-02-19T01:00:33.063Z,14.35
2024-02-19T01:02:59.719Z,13.85
2024-02-19T01:05:26.474Z,13.68
2024-02-19T01:07:53.101Z,13.61
2024-02-19T01:10:20.354Z,13.50
2024-02-19T01:12:47.034Z,13.26
2024-02-19T01:15:13.666Z,12.83
2024-02-19T01:17:40.211Z,12.43
2024-02-19T01:20:08.601Z,12.20
2024-02-19T01:22:35.164Z,12.42
2024-02-19T01:25:02.449Z,12.38
2024-02-19T01:27:29.817Z,12.15
2024-02-19T01:29:56.394Z,12.00
2024-02-19T01:32:24.082Z,12.01
2024-02-19T01:34:50.742Z,12.32
2024-02-19T01:37:17.477Z,12.51
2024-02-19T01:39:44.334Z,12.50
2024-02-19T01:42:11.369Z,12.51
2024-02-19T01:44:38.178Z,12.27
2024-02-19T01:47:04.921Z,12.41
2024-02-19T01:49:32.454Z,12.44
2024-02-19T01:52:00.837Z,12.48
2024-02-19T01:54:27.975Z,12.05
2024-02-19T01:56:54.707Z,12.39
2024-02-19T01:59:22.857Z,11.97
2024-02-19T02:01:50.050Z,12.02
2024-02-19T02:04:19.752Z,12.39
2024-02-19T02:06:47.161Z,12.64
2024-02-19T02:09:13.852Z,12.44
2024-02-19T02:11:40.396Z,12.01
2024-02-19T02:14:06.916Z,12.05
2024-02-19T02:16:34.581Z,12.49
2024-02-19T02:19:01.244Z,12.77
2024-02-19T02:21:28.080Z,12.64
2024-02-19T02:23:54.707Z,12.76
2024-02-19T02:26:21.292Z,12.72
2024-02-19T02:28:48.213Z,13.21
2024-02-19T02:31:15.076Z,12.87
2024-02-19T02:33:41.896Z,13.11
2024-02-19T02:36:11.412Z,12.98
2024-02-19T02:38:38.026Z,12.66
2024-02-19T02:41:04.702Z,12.63
2024-02-19T02:43:31.326Z,12.92
2024-02-19T02:45:57.948Z,13.35
2024-02-19T02:48:24.857Z,13.52
2024-02-19T02:50:51.509Z,13.38
2024-02-19T02:53:18.550Z,12.98
2024-02-19T02:55:45.119Z,13.06
2024-02-19T02:58:11.825Z,13.23
2024-02-19T03:00:38.817Z,12.69
2024-02-19T03:03:05.589Z,12.37
2024-02-19T03:05:32.184Z,12.33
2024-02-19T03:07:59.317Z,11.98
2024-02-19T03:10:26.046Z,12.23
2024-02-19T03:12:52.698Z,12.28
2024-02-19T03:15:19.441Z,12.33
2024-02-19T03:17:46.371Z,11.73
2024-02-19T03:20:15.095Z,11.60
2024-02-19T03:22:44.548Z,11.36
2024-02-19T03:25:11.423Z,11.42
2024-02-19T03:27:38.972Z,11.62
2024-02-19T03:30:07.809Z,11.72
2024-02-19T03:32:34.488Z,11.62
2024-02-19T03:35:01.109Z,11.27
2024-02-19T03:37:27.693Z,11.20
2024-02-19T03:39:54.328Z,11.89
2024-02-19T03:42:20.936Z,11.97
2024-02-19T03:44:48.042Z,11.62
2024-02-19T03:47:14.663Z,11.64
2024-02-19T03:49:41.306Z,11.99
2024-02-19T03:52:08.023Z,12.00
2024-02-19T03:54:34.626Z,11.97
2024-02-19T03:57:01.289Z,11.92
2024-02-19T03:59:27.879Z,12.32
2024-02-19T04:01:54.542Z,12.03
2024-02-19T04:04:21.656Z,12.19
2024-02-19T04:06:48.446Z,12.20
2024-02-19T04:09:15.111Z,12.67
2024-02-19T04:11:41.785Z,13.16
2024-02-19T04:14:08.408Z,12.90
2024-02-19T04:16:34.973Z,12.59
2024-02-19T04:19:01.815Z,12.61
2024-02-19T04:21:28.496Z,12.49
2024-02-19T04:23:55.123Z,12.87
2024-02-19T04:26:21.701Z,12.30
2024-02-19T04:28:48.246Z,12.30
2024-02-19T04:31:14.962Z,12.45
2024-02-19T04:33:44.733Z,12.23
2024-02-19T04:36:11.395Z,12.62
2024-02-19T04:38:38.003Z,12.63
2024-02-19T04:41:05.334Z,12.64
2024-02-19T04:43:31.986Z,12.97
2024-02-19T04:45:58.577Z,12.88
2024-02-19T04:48:25.203Z,12.88
2024-02-19T04:50:52.365Z,12.83
2024-02-19T04:53:19.332Z,12.80
2024-02-19T04:55:46.725Z,12.54
2024-02-19T04:58:13.411Z,11.88
2024-02-19T05:00:41.690Z,12.55
2024-02-19T05:03:08.745Z,12.82
2024-02-19T05:05:36.215Z,12.04
2024-02-19T05:08:04.266Z,12.74
2024-02-19T05:10:30.919Z,12.97
2024-02-19T05:12:57.977Z,12.55
2024-02-19T05:15:24.801Z,12.88
2024-02-19T05:17:51.512Z,12.79
2024-02-19T05:20:18.699Z,13.04
2024-02-19T05:22:48.610Z,13.07
2024-02-19T05:25:15.270Z,12.97
2024-02-19T05:27:41.963Z,13.02
2024-02-19T05:30:08.925Z,13.46
2024-02-19T05:32:35.538Z,13.40
2024-02-19T05:35:04.311Z,13.07
2024-02-19T05:37:31.870Z,13.22
2024-02-19T05:39:58.703Z,13.12
2024-02-19T05:42:25.263Z,13.71
2024-02-19T05:44:51.815Z,13.22
2024-02-19T05:47:18.552Z,13.21
2024-02-19T05:49:46.354Z,13.62
2024-02-19T05:52:13.244Z,13.28
2024-02-19T05:54:40.229Z,13.36
2024-02-19T05:57:07.876Z,13.38
2024-02-19T05:59:35.123Z,13.44
2024-02-19T06:02:02.261Z,13.75
2024-02-19T06:04:29.231Z,13.72
2024-02-19T06:06:55.894Z,13.87
2024-02-19T06:09:22.587Z,14.10
2024-02-19T06:11:49.174Z,14.02
2024-02-19T06:14:15.738Z,13.99
2024-02-19T06:16:42.297Z,14.30
2024-02-19T06:19:09.939Z,14.39
2024-02-19T06:21:36.917Z,14.48
2024-02-19T06:24:03.663Z,14.06
2024-02-19T06:26:30.259Z,14.22
2024-02-19T06:28:56.862Z,14.28
2024-02-19T06:31:28.730Z,14.56
2024-02-19T06:33:56.198Z,14.41
2024-02-19T06:36:23.339Z,14.41
2024-02-19T06:38:49.928Z,14.51
2024-02-19T06:41:16.542Z,14.64
2024-02-19T06:43:43.131Z,14.51
2024-02-19T06:46:13.037Z,14.63
2024-02-19T06:48:42.709Z,14.53
2024-02-19T06:51:09.385Z,14.60
2024-02-19T06:53:36.019Z,14.75
2024-02-19T06:56:02.687Z,14.61
2024-02-19T06:58:29.508Z,14.54
2024-02-19T07:00:56.338Z,14.47
2024-02-19T07:03:22.977Z,14.62
2024-02-19T07:05:49.701Z,14.70
2024-02-19T07:08:16.351Z,14.61
2024-02-19T07:10:43.482Z,14.09
2024-02-19T07:13:10.154Z,14.32
2024-02-19T07:15:36.758Z,14.02
2024-02-19T07:18:03.685Z,14.29
2024-02-19T07:20:30.283Z,14.40
2024-02-19T07:22:56.893Z,14.09
2024-02-19T07:25:23.608Z,14.36
2024-02-19T07:27:50.275Z,14.55
2024-02-19T07:30:17.087Z,14.57
2024-02-19T07:32:44.244Z,14.27
2024-02-19T07:35:11.118Z,14.32
2024-02-19T07:37:38.054Z,14.43
2024-02-19T07:40:05.776Z,14.15
2024-02-19T07:42:32.453Z,14.43
2024-02-19T07:44:59.037Z,13.98
2024-02-19T07:47:25.632Z,14.54
2024-02-19T07:49:52.341Z,14.49
2024-02-19T07:52:19.042Z,13.99
2024-02-19T07:54:45.734Z,13.99
2024-02-19T07:57:12.531Z,13.84
2024-02-19T07:59:39.442Z,13.87
2024-02-19T08:02:07.560Z,14.03
2024-02-19T08:04:34.388Z,14.32
2024-02-19T08:07:02.059Z,13.94
2024-02-19T08:09:28.922Z,14.58
2024-02-19T08:11:58.425Z,14.64
2024-02-19T08:14:28.183Z,14.66
2024-02-19T08:16:54.975Z,14.40
2024-02-19T08:19:21.970Z,14.62
2024-02-19T08:21:49.633Z,14.77
2024-02-19T08:24:16.304Z,14.68
2024-02-19T08:26:42.986Z,14.27
2024-02-19T08:29:09.673Z,14.29
2024-02-19T08:31:36.209Z,13.84
2024-02-19T08:34:02.940Z,14.08
2024-02-19T08:36:29.590Z,14.26
2024-02-19T08:38:56.978Z,14.55
2024-02-19T08:41:24.223Z,14.35
2024-02-19T08:43:50.929Z,14.55
2024-02-19T08:46:17.717Z,14.85
2024-02-19T08:48:44.914Z,14.95
2024-02-19T08:51:11.718Z,15.02
2024-02-19T08:53:38.255Z,14.78
2024-02-19T08:56:05.599Z,14.61
2024-02-19T08:58:32.559Z,14.57
2024-02-19T09:01:00.615Z,14.81
2024-02-19T09:03:28.395Z,14.36
2024-02-19T09:05:55.236Z,14.46
2024-02-19T09:08:21.953Z,14.55
2024-02-19T09:10:48.603Z,14.46
2024-02-19T09:13:15.163Z,14.50
2024-02-19T09:15:42.000Z,14.64
2024-02-19T09:18:08.810Z,14.76
2024-02-19T09:20:35.958Z,14.59
2024-02-19T09:23:02.819Z,14.89
2024-02-19T09:25:30.340Z,14.91
2024-02-19T09:27:57.277Z,15.08
2024-02-19T09:30:24.755Z,15.20
2024-02-19T09:32:51.518Z,15.75
2024-02-19T09:35:19.513Z,15.86
2024-02-19T09:37:49.229Z,15.76
2024-02-19T09:40:17.655Z,15.89
2024-02-19T09:42:48.271Z,16.23
2024-02-19T09:45:15.431Z,16.20
2024-02-19T09:47:45.789Z,16.56
2024-02-19T09:50:14.828Z,17.01
2024-02-19T09:52:45.012Z,16.66
2024-02-19T09:55:11.763Z,16.86
2024-02-19T09:57:38.393Z,16.86
2024-02-19T10:00:06.010Z,17.01
2024-02-19T10:02:35.431Z,16.82
2024-02-19T10:05:02.784Z,16.77
2024-02-19T10:07:31.932Z,17.28
2024-02-19T10:09:58.613Z,16.93
2024-02-19T10:12:25.206Z,17.13
2024-02-19T10:14:52.357Z,16.81
2024-02-19T10:17:24.788Z,16.80
2024-02-19T10:20:02.381Z,16.98
2024-02-19T10:22:28.986Z,17.46
2024-02-19T10:24:55.673Z,17.60
2024-02-19T10:27:22.449Z,17.28
2024-02-19T10:29:49.194Z,17.51
2024-02-19T10:32:15.789Z,17.60
2024-02-19T10:34:42.420Z,18.01
2024-02-19T10:37:09.069Z,18.87
2024-02-19T10:39:35.721Z,19.15
2024-02-19T10:42:03.026Z,18.41
2024-02-19T10:44:30.072Z,18.98
2024-02-19T10:46:57.008Z,19.66
2024-02-19T10:49:23.764Z,19.46
2024-02-19T10:51:51.996Z,19.57
2024-02-19T10:54:20.202Z,19.42
2024-02-19T10:56:47.247Z,19.01
2024-02-19T10:59:16.107Z,19.28
2024-02-19T11:01:46.271Z,18.95
2024-02-19T11:04:15.974Z,19.16
2024-02-19T11:06:57.009Z,19.08
2024-02-19T11:09:36.940Z,18.74
2024-02-19T11:12:06.461Z,18.85
2024-02-19T11:14:36.801Z,18.52
2024-02-19T11:17:04.283Z,18.10
2024-02-19T11:19:41.471Z,18.38
2024-02-19T11:22:10.653Z,17.92
2024-02-19T11:24:39.207Z,17.74
2024-02-19T11:27:07.115Z,17.25
2024-02-19T11:29:43.399Z,17.86
2024-02-19T11:32:20.213Z,18.04
2024-02-19T11:34:48.543Z,18.09
2024-02-19T11:37:15.509Z,17.46
2024-02-19T11:39:43.848Z,17.80
2024-02-19T11:42:13.083Z,18.08
2024-02-19T11:44:40.248Z,18.20
2024-02-19T11:47:08.912Z,18.20
2024-02-19T11:49:35.864Z,17.91
2024-02-19T11:52:11.250Z,17.76
2024-02-19T11:54:40.151Z,17.95
2024-02-19T11:57:10.377Z,18.04
2024-02-19T11:59:37.280Z,17.81
2024-02-19T12:02:05.868Z,18.12
2024-02-19T12:04:37.555Z,18.24
2024-02-19T12:07:04.726Z,18.35
2024-02-19T12:09:31.689Z,18.71
2024-02-19T12:11:59.132Z,19.39
2024-02-19T12:14:25.924Z,18.84
2024-02-19T12:16:55.485Z,18.62
2024-02-19T12:19:22.420Z,19.20
2024-02-19T12:21:50.504Z,19.38
2024-02-19T12:24:17.208Z,19.52
2024-02-19T12:26:45.668Z,19.60
2024-02-19T12:29:14.154Z,19.30
2024-02-19T12:31:41.293Z,19.32
2024-02-19T12:34:08.884Z,19.84
2024-02-19T12:36:36.628Z,19.69
2024-02-19T12:39:04.054Z,19.43
2024-02-19T12:41:30.896Z,19.78
2024-02-19T12:43:58.127Z,19.10
2024-02-19T12:46:26.042Z,18.85
2024-02-19T12:48:53.176Z,19.53
2024-02-19T12:51:20.724Z,19.76
2024-02-19T12:53:47.431Z,19.78
2024-02-19T12:56:14.007Z,19.28
2024-02-19T12:58:40.806Z,19.15
2024-02-19T13:01:20.292Z,18.49
2024-02-19T13:03:54.654Z,18.54
2024-02-19T13:06:21.642Z,18.69
2024-02-19T13:08:49.020Z,17.84
2024-02-19T13:11:15.976Z,17.83
2024-02-19T13:13:42.957Z,18.54
2024-02-19T13:16:09.702Z,18.29
2024-02-19T13:18:37.334Z,17.57
2024-02-19T13:21:04.879Z,17.54
2024-02-19T13:23:31.647Z,18.11
2024-02-19T13:25:58.275Z,18.05
2024-02-19T13:28:24.899Z,17.57
2024-02-19T13:30:51.619Z,17.89
2024-02-19T13:33:19.242Z,17.95
2024-02-19T13:35:46.016Z,17.97
2024-02-19T13:38:13.919Z,17.60
2024-02-19T13:40:40.696Z,17.79
2024-02-19T13:43:07.520Z,18.12
2024-02-19T13:46:04.549Z,17.82
2024-02-19T13:48:32.028Z,17.29
2024-02-19T13:50:59.447Z,17.76
2024-02-19T13:53:29.184Z,17.86
2024-02-19T13:55:58.018Z,17.85
2024-02-19T13:58:26.327Z,17.86
2024-02-19T14:00:59.219Z,18.14
2024-02-19T14:03:26.258Z,18.37
2024-02-19T14:05:53.270Z,18.27
2024-02-19T14:08:20.944Z,18.19
2024-02-19T14:10:52.804Z,17.85
2024-02-19T14:13:20.435Z,17.42
2024-02-19T14:15:47.435Z,17.18
2024-02-19T14:18:14.318Z,17.30
2024-02-19T14:20:40.971Z,17.20
2024-02-19T14:23:10.129Z,17.27
2024-02-19T14:25:37.086Z,17.07
2024-02-19T14:28:05.267Z,17.26
2024-02-19T14:30:32.459Z,17.48
2024-02-19T14:32:59.675Z,17.50
2024-02-19T14:35:26.598Z,16.76
2024-02-19T14:37:54.904Z,16.87
2024-02-19T14:40:21.709Z,17.32
2024-02-19T14:42:49.519Z,17.32
2024-02-19T14:45:16.964Z,17.34
2024-02-19T14:47:46.551Z,17.59
2024-02-19T14:50:14.538Z,17.85
2024-02-19T14:52:42.235Z,17.24
2024-02-19T14:55:10.962Z,17.51
2024-02-19T14:57:47.131Z,16.89
2024-02-19T15:00:21.332Z,17.17
2024-02-19T15:02:49.078Z,17.60
2024-02-19T15:05:16.069Z,17.23
2024-02-19T15:07:45.447Z,17.30
2024-02-19T15:10:15.911Z,17.46
2024-02-19T15:12:42.705Z,17.44
2024-02-19T15:15:10.135Z,17.42
2024-02-19T15:17:36.890Z,17.18
2024-02-19T15:20:04.082Z,17.45
2024-02-19T15:22:30.912Z,17.25
2024-02-19T15:24:57.645Z,17.02
2024-02-19T15:27:27.356Z,17.07
2024-02-19T15:29:58.135Z,17.34
2024-02-19T15:32:25.542Z,16.95
2024-02-19T15:34:54.225Z,17.30
2024-02-19T15:37:21.652Z,17.76
2024-02-19T15:39:48.420Z,18.06
2024-02-19T15:42:14.986Z,18.28
2024-02-19T15:44:44.021Z,18.03
2024-02-19T15:47:10.679Z,18.18
2024-02-19T15:49:37.384Z,17.25
2024-02-19T15:52:04.348Z,17.51
2024-02-19T15:54:30.969Z,18.04
2024-02-19T15:56:57.631Z,18.25
2024-02-19T15:59:24.307Z,18.04
2024-02-19T16:01:53.070Z,18.16
2024-02-19T16:04:20.658Z,18.30
2024-02-19T16:06:50.988Z,17.92
2024-02-19T16:09:17.642Z,17.70
2024-02-19T16:11:44.415Z,17.97
2024-02-19T16:14:11.087Z,18.14
2024-02-19T16:16:38.364Z,18.03
2024-02-19T16:19:05.262Z,17.71
2024-02-19T16:21:33.163Z,17.15
2024-02-19T16:23:59.751Z,17.56
2024-02-19T16:26:27.104Z,17.41
2024-02-19T16:28:54.552Z,17.45
2024-02-19T16:31:21.161Z,17.77
2024-02-19T16:33:48.367Z,17.66
2024-02-19T16:36:15.317Z,17.49
2024-02-19T16:38:44.079Z,17.80
2024-02-19T16:41:10.843Z,17.72
2024-02-19T16:43:37.652Z,17.60
2024-02-19T16:46:06.016Z,17.78
2024-02-19T16:48:40.206Z,17.56
2024-02-19T16:51:08.210Z,17.01
2024-02-19T16:53:35.450Z,16.59
2024-02-19T16:56:03.711Z,16.50
2024-02-19T16:58:33.413Z,16.57
2024-02-19T17:01:03.480Z,17.12
2024-02-19T17:03:30.467Z,16.94
2024-02-19T17:05:57.392Z,17.15
2024-02-19T17:08:26.982Z,17.46
2024-02-19T17:10:54.456Z,17.59
2024-02-19T17:13:21.187Z,17.68
2024-02-19T17:15:48.019Z,17.77
2024-02-19T17:18:18.656Z,17.87
2024-02-19T17:20:45.538Z,17.67
2024-02-19T17:23:15.333Z,17.90
2024-02-19T17:25:42.222Z,17.84
2024-02-19T17:28:09.238Z,17.75
2024-02-19T17:30:36.088Z,18.21
2024-02-19T17:33:02.814Z,18.18
2024-02-19T17:35:31.121Z,17.54
2024-02-19T17:37:58.291Z,17.51
2024-02-19T17:40:25.104Z,17.53
2024-02-19T17:42:52.128Z,17.65
2024-02-19T17:45:19.332Z,17.77
2024-02-19T17:47:49.319Z,17.69
2024-02-19T17:50:16.171Z,17.94
2024-02-19T17:52:45.983Z,18.20
2024-02-19T17:55:12.792Z,18.33
2024-02-19T17:57:40.400Z,18.27
2024-02-19T18:00:10.270Z,18.14
2024-02-19T18:02:40.111Z,17.88
2024-02-19T18:05:07.095Z,17.22
2024-02-19T18:07:33.775Z,17.58
2024-02-19T18:10:00.704Z,17.20
2024-02-19T18:12:27.668Z,17.13
2024-02-19T18:14:54.514Z,16.79
2024-02-19T18:17:21.152Z,17.20
2024-02-19T18:19:48.834Z,17.21
2024-02-19T18:22:15.531Z,17.28
2024-02-19T18:24:42.323Z,17.29
2024-02-19T18:27:09.491Z,17.17
2024-02-19T18:29:36.865Z,17.24
2024-02-19T18:32:03.669Z,17.12
2024-02-19T18:34:31.816Z,17.43
2024-02-19T18:37:00.184Z,17.32
2024-02-19T18:39:29.029Z,16.67
2024-02-19T18:41:57.730Z,17.11
2024-02-19T18:44:24.474Z,17.17
2024-02-19T18:46:51.088Z,17.14
2024-02-19T18:49:18.352Z,16.85
2024-02-19T18:51:47.324Z,17.25
2024-02-19T18:54:15.483Z,16.59
2024-02-19T18:56:42.323Z,16.64
2024-02-19T18:59:09.189Z,16.63
2024-02-19T19:01:36.301Z,16.66
2024-02-19T19:04:04.089Z,16.84
2024-02-19T19:06:31.376Z,16.71
2024-02-19T19:09:04.202Z,16.86
2024-02-19T19:11:30.909Z,16.38
2024-02-19T19:13:57.724Z,16.17
2024-02-19T19:16:24.537Z,15.90
2024-02-19T19:18:52.438Z,16.39
2024-02-19T19:21:20.146Z,16.94
2024-02-19T19:23:48.956Z,16.34
2024-02-19T19:26:15.656Z,16.34
2024-02-19T19:28:42.295Z,16.61
2024-02-19T19:31:09.075Z,16.92
2024-02-19T19:33:36.058Z,16.83
2024-02-19T19:36:03.063Z,16.80
2024-02-19T19:38:30.556Z,16.64
2024-02-19T19:40:57.997Z,17.09
2024-02-19T19:43:25.145Z,17.18
2024-02-19T19:45:54.240Z,17.20
2024-02-19T19:48:28.103Z,17.15
2024-02-19T19:50:56.356Z,17.52
2024-02-19T19:53:24.070Z,17.20
2024-02-19T19:55:55.017Z,17.25
2024-02-19T19:58:31.005Z,17.25
2024-02-19T20:00:59.995Z,17.38
2024-02-19T20:03:26.958Z,17.44
2024-02-19T20:05:54.280Z,17.30
2024-02-19T20:08:21.315Z,17.04
2024-02-19T20:10:48.439Z,16.95
2024-02-19T20:13:15.554Z,17.30
2024-02-19T20:15:42.232Z,16.96
2024-02-19T20:18:10.074Z,17.31
2024-02-19T20:20:36.939Z,17.23
2024-02-19T20:23:03.797Z,17.48
2024-02-19T20:25:31.783Z,16.99
2024-02-19T20:28:05.407Z,16.73
2024-02-19T20:30:32.057Z,16.95
2024-02-19T20:32:58.664Z,16.94
2024-02-19T20:35:27.023Z,17.41
2024-02-19T20:37:53.801Z,17.40
2024-02-19T20:40:20.514Z,17.58
2024-02-19T20:42:53.220Z,17.40
2024-02-19T20:45:20.784Z,17.22
2024-02-19T20:47:47.857Z,17.19
2024-02-19T20:50:15.402Z,17.29
2024-02-19T20:52:44.779Z,17.30
2024-02-19T20:55:12.781Z,17.30
2024-02-19T20:57:39.374Z,17.34
2024-02-19T21:00:11.156Z,17.45
2024-02-19T21:02:40.868Z,17.42
2024-02-19T21:05:14.658Z,16.89
2024-02-19T21:07:44.923Z,17.04
2024-02-19T21:10:13.984Z,16.95
2024-02-19T21:12:43.874Z,17.10
2024-02-19T21:15:16.127Z,16.70
2024-02-19T21:17:42.810Z,16.14
2024-02-19T21:20:11.753Z,16.19
2024-02-19T21:22:39.270Z,16.39
2024-02-19T21:25:06.619Z,16.04
2024-02-19T21:27:33.230Z,15.90
2024-02-19T21:29:59.813Z,15.71
2024-02-19T21:32:26.868Z,15.91
2024-02-19T21:34:54.027Z,16.02
2024-02-19T21:37:21.093Z,15.99
2024-02-19T21:39:47.787Z,16.07
2024-02-19T21:42:20.573Z,15.55
2024-02-19T21:44:49.967Z,15.47
2024-02-19T21:47:16.574Z,15.99
2024-02-19T21:49:43.553Z,15.18
2024-02-19T21:52:10.304Z,15.52
2024-02-19T21:54:36.905Z,15.71
2024-02-19T21:57:05.558Z,15.42
2024-02-19T21:59:32.271Z,15.56
2024-02-19T22:01:59.466Z,15.80
2024-02-19T22:04:26.331Z,16.05
2024-02-19T22:06:53.079Z,16.42
2024-02-19T22:09:19.746Z,16.24
2024-02-19T22:11:46.798Z,15.81
2024-02-19T22:14:15.323Z,15.59
2024-02-19T22:16:41.962Z,15.61
2024-02-19T22:19:08.751Z,15.67
2024-02-19T22:21:35.752Z,15.62
2024-02-19T22:24:02.375Z,15.30
2024-02-19T22:26:28.968Z,15.65
2024-02-19T22:28:55.538Z,15.53
2024-02-19T22:31:22.204Z,15.64
2024-02-19T22:33:49.244Z,14.95
2024-02-19T22:36:15.951Z,14.92
2024-02-19T22:38:42.491Z,14.94
2024-02-19T22:41:09.392Z,14.71
2024-02-19T22:43:35.983Z,15.07
2024-02-19T22:46:02.653Z,14.99
2024-02-19T22:48:29.499Z,14.44
2024-02-19T22:50:56.107Z,15.08
2024-02-19T22:53:22.668Z,14.97
2024-02-19T22:55:49.220Z,15.08
2024-02-19T22:58:28.980Z,14.67
2024-02-19T23:00:59.760Z,14.77
2024-02-19T23:03:26.521Z,14.59
2024-02-19T23:05:53.292Z,14.39
2024-02-19T23:08:20.291Z,14.73
2024-02-19T23:10:46.958Z,15.28
2024-02-19T23:13:14.054Z,15.05
2024-02-19T23:15:42.458Z,15.52
2024-02-19T23:18:09.151Z,14.80
2024-02-19T23:20:36.204Z,14.59
2024-02-19T23:23:03.398Z,14.80
2024-02-19T23:25:30.003Z,14.85
2024-02-19T23:27:58.527Z,14.71
2024-02-19T23:30:25.828Z,14.75
2024-02-19T23:32:52.548Z,14.73
2024-02-19T23:35:19.236Z,15.19
2024-02-19T23:37:46.808Z,14.96
2024-02-19T23:40:17.826Z,14.39
2024-02-19T23:42:45.753Z,14.47
2024-02-19T23:45:12.695Z,14.10
2024-02-19T23:47:40.510Z,14.38
2024-02-19T23:50:09.261Z,14.77
2024-02-19T23:52:36.553Z,14.35
2024-02-19T23:55:03.976Z,14.83
2024-02-19T23:57:30.611Z,14.54
2024-02-19T23:59:57.197Z,14.41
